Time;durP1;ratioP1;P1;durP2;ratioP2;P2;SDS_P1;SDS_P2;PMS_P1;PMS_P2;Temp;Humidity;BMP_temperature;BMP_pressure;BME280_temperature;BME280_humidity;BME280_pressure;Samples;Min_cycle;Max_cycle;Signal;HPM_P1;HPM_P2
2024/01/30 00:09:32;;;;;;;;;;;0.90;99.90;;;;;;20857500;28;19920;-78
2024/01/30 00:19:32;;;;;;;;;;;0.80;99.90;;;;;;20855291;28;19920;-78
2024/01/30 00:29:33;;;;;;;;;;;0.60;99.90;;;;;;20835715;28;19920;-78
2024/01/30 00:39:34;;;;;;;;;;;0.40;99.90;;;;;;20852661;28;20295;-78
2024/01/30 00:49:35;;;;;;;;;;;0.10;99.90;;;;;;20850552;28;19924;-78
2024/01/30 00:59:35;;;;;;;;;;;-0.10;99.90;;;;;;20851021;28;19959;-78
2024/01/30 01:09:36;;;;;;;;;;;-0.20;99.90;;;;;;20852783;28;19920;-78
2024/01/30 01:19:37;;;;;;;;;;;-0.30;99.90;;;;;;20850236;28;20334;-78
2024/01/30 01:29:37;;;;;;;;;;;-0.20;99.90;;;;;;20847218;28;19913;-78
2024/01/30 01:39:38;;;;;;;;;;;-0.10;99.90;;;;;;20851316;28;20345;-78
2024/01/30 01:49:39;;;;;;;;;;;-0.30;99.90;;;;;;20847638;28;19955;-78
2024/01/30 01:59:39;;;;;;;;;;;-0.50;99.90;;;;;;20846790;28;19913;-78
2024/01/30 02:09:40;;;;;;;;;;;-0.40;99.90;;;;;;20847461;28;19919;-79
2024/01/30 02:19:41;;;;;;;;;;;-0.60;99.90;;;;;;20847925;28;20376;-78
2024/01/30 02:29:42;;;;;;;;;;;-0.70;99.90;;;;;;20853891;28;19913;-78
2024/01/30 02:39:42;;;;;;;;;;;-0.70;99.90;;;;;;20865483;28;19917;-77
2024/01/30 02:49:43;;;;;;;;;;;-0.80;99.90;;;;;;20840298;28;19968;-77
2024/01/30 02:59:43;;;;;;;;;;;-0.80;99.90;;;;;;20864517;28;20440;-77
2024/01/30 03:09:44;;;;;;;;;;;-0.80;99.90;;;;;;20844020;28;19921;-79
2024/01/30 03:19:45;;;;;;;;;;;-0.90;99.90;;;;;;20847461;28;19924;-79
2024/01/30 03:29:45;;;;;;;;;;;-0.80;99.90;;;;;;20845947;28;19913;-79
2024/01/30 03:39:46;;;;;;;;;;;-0.80;99.90;;;;;;20850467;28;19923;-79
2024/01/30 03:49:47;;;;;;;;;;;-0.90;99.90;;;;;;20839183;28;19920;-78
2024/01/30 03:59:47;;;;;;;;;;;-0.90;99.90;;;;;;20847701;28;19913;-76
2024/01/30 04:09:48;;;;;;;;;;;-0.90;99.90;;;;;;20842318;28;19914;-77
2024/01/30 04:19:48;;;;;;;;;;;-1.00;99.90;;;;;;20842349;28;19913;-77
2024/01/30 04:29:49;;;;;;;;;;;-1.00;99.90;;;;;;20844233;28;20406;-76
2024/01/30 04:39:50;;;;;;;;;;;-1.00;99.90;;;;;;20841124;28;19946;-77
2024/01/30 04:49:51;;;;;;;;;;;-1.00;99.90;;;;;;20840092;28;19913;-77
2024/01/30 04:59:52;;;;;;;;;;;-1.00;99.90;;;;;;20842538;28;19913;-78
2024/01/30 05:09:53;;;;;;;;;;;-1.00;99.90;;;;;;20842389;28;19959;-78
2024/01/30 05:19:54;;;;;;;;;;;-1.10;99.90;;;;;;20842356;28;20019;-78
2024/01/30 05:29:55;;;;;;;;;;;-1.10;99.90;;;;;;20818301;28;19917;-77
2024/01/30 05:39:55;;;;;;;;;;;-1.10;99.90;;;;;;20837438;28;19939;-78
2024/01/30 05:49:56;;;;;;;;;;;-1.10;99.90;;;;;;20833591;28;20008;-78
2024/01/30 05:59:56;;;;;;;;;;;-1.10;99.90;;;;;;20816181;28;19945;-78
2024/01/30 06:09:57;;;;;;;;;;;-1.10;99.90;;;;;;20833730;28;20372;-78
2024/01/30 06:19:58;;;;;;;;;;;-1.10;99.90;;;;;;20829880;28;20408;-76
2024/01/30 06:29:58;;;;;;;;;;;-1.10;99.90;;;;;;20831591;28;20020;-78
2024/01/30 06:39:59;;;;;;;;;;;-1.20;99.90;;;;;;20810777;28;19917;-77
2024/01/30 06:50:01;;;;;;;;;;;-1.10;99.90;;;;;;20827737;28;19947;-78
2024/01/30 07:00:02;;;;;;;;;;;-1.10;99.90;;;;;;20826556;28;19970;-77
2024/01/30 07:10:03;;;;;;;;;;;-1.10;99.90;;;;;;20806664;28;19948;-78
2024/01/30 07:20:04;;;;;;;;;;;-1.10;99.90;;;;;;20824432;28;19913;-77
2024/01/30 07:30:05;;;;;;;;;;;-1.20;99.90;;;;;;20836103;28;20005;-77
2024/01/30 07:40:06;;;;;;;;;;;-1.10;99.90;;;;;;20839523;28;19952;-76
2024/01/30 07:50:07;;;;;;;;;;;-1.10;99.90;;;;;;20839408;28;19913;-77
2024/01/30 08:00:08;;;;;;;;;;;-1.10;99.90;;;;;;20838022;28;19944;-78
2024/01/30 08:10:11;;;;;;;;;;;-0.90;99.90;;;;;;20841434;28;19913;-77
2024/01/30 08:20:12;;;;;;;;;;;-0.80;99.90;;;;;;20840740;28;19917;-78
2024/01/30 08:30:12;;;;;;;;;;;-0.60;99.90;;;;;;20845080;28;19943;-77
2024/01/30 08:40:13;;;;;;;;;;;-0.30;99.90;;;;;;20837752;28;19924;-78
2024/01/30 08:50:14;;;;;;;;;;;-0.10;99.90;;;;;;20839827;28;20295;-78
2024/01/30 09:00:15;;;;;;;;;;;0.30;99.90;;;;;;20839106;28;19924;-77
2024/01/30 09:10:15;;;;;;;;;;;0.70;99.90;;;;;;20822219;28;20384;-78
2024/01/30 09:20:16;;;;;;;;;;;0.50;99.90;;;;;;20825863;28;19917;-78
2024/01/30 09:30:17;;;;;;;;;;;0.40;99.90;;;;;;20841081;28;19920;-78
2024/01/30 09:40:19;;;;;;;;;;;0.60;99.90;;;;;;20843827;28;20042;-79
2024/01/30 09:50:19;;;;;;;;;;;0.80;99.90;;;;;;20868067;28;19935;-80
2024/01/30 10:00:22;;;;;;;;;;;1.10;99.90;;;;;;20872687;28;19917;-80
2024/01/30 10:10:23;;;;;;;;;;;1.20;99.90;;;;;;20868901;28;19913;-80
2024/01/30 10:20:24;;;;;;;;;;;0.90;99.90;;;;;;20829979;28;19923;-81
2024/01/30 10:30:25;;;;;;;;;;;1.30;99.90;;;;;;20849184;28;19935;-81
2024/01/30 10:40:29;;;;;;;;;;;1.30;99.90;;;;;;20858458;28;20368;-82
2024/01/30 10:50:30;;;;;;;;;;;1.50;99.90;;;;;;20871520;28;19964;-82
2024/01/30 11:00:33;;;;;;;;;;;1.90;99.90;;;;;;20841631;28;19917;-83
2024/01/30 11:10:43;;;;;;;;;;;2.10;99.90;;;;;;20879623;28;19913;-82
2024/01/30 11:20:46;;;;;;;;;;;3.10;99.90;;;;;;20871878;28;20478;-81
2024/01/30 11:30:47;;;;;;;;;;;3.20;99.90;;;;;;20906990;28;19912;-82
2024/01/30 11:40:48;;;;;;;;;;;3.10;99.90;;;;;;20860883;28;19940;-81
2024/01/30 11:50:50;;;;;;;;;;;3.60;99.90;;;;;;20882158;28;20348;-81
2024/01/30 12:00:55;;;;;;;;;;;4.00;99.90;;;;;;20898160;28;19928;-81
2024/01/30 12:11:01;;;;;;;;;;;4.50;99.90;;;;;;20891830;28;20442;-81
2024/01/30 12:21:02;;;;;;;;;;;6.10;99.90;;;;;;20883039;28;19917;-81
2024/01/30 12:31:03;;;;;;;;;;;7.90;99.90;;;;;;20883188;28;19920;-82
2024/01/30 12:41:04;;;;;;;;;;;9.50;99.90;;;;;;20867101;28;20415;-83
2024/01/30 12:51:05;;;;;;;;;;;10.80;99.90;;;;;;20881490;28;19936;-82
2024/01/30 13:01:05;;;;;;;;;;;11.50;99.90;;;;;;20884127;28;19944;-82
2024/01/30 13:11:06;;;;;;;;;;;11.40;99.90;;;;;;20857502;28;20334;-82
2024/01/30 13:21:07;;;;;;;;;;;9.10;99.90;;;;;;20851849;28;19926;-81
2024/01/30 13:31:08;;;;;;;;;;;7.20;99.90;;;;;;20863719;28;19919;-81
2024/01/30 13:41:08;;;;;;;;;;;7.10;99.90;;;;;;20882348;28;19924;-80
2024/01/30 13:51:10;;;;;;;;;;;6.90;99.90;;;;;;20888524;28;19921;-82
2024/01/30 14:01:11;;;;;;;;;;;7.10;99.90;;;;;;20881434;28;19916;-81
2024/01/30 14:11:12;;;;;;;;;;;7.30;99.90;;;;;;20869528;28;19913;-82
2024/01/30 14:21:12;;;;;;;;;;;7.60;99.90;;;;;;20869733;28;19964;-80
2024/01/30 14:31:13;;;;;;;;;;;7.50;99.90;;;;;;20856476;28;19920;-82
2024/01/30 14:41:14;;;;;;;;;;;7.30;99.90;;;;;;20852301;28;20024;-81
2024/01/30 14:51:15;;;;;;;;;;;7.20;99.90;;;;;;20838713;28;20392;-81
2024/01/30 15:01:15;;;;;;;;;;;7.20;99.90;;;;;;20839542;28;19921;-81
2024/01/30 15:11:16;;;;;;;;;;;7.20;99.90;;;;;;20843715;28;19913;-81
2024/01/30 15:21:22;;;;;;;;;;;6.60;99.90;;;;;;20858097;28;19917;-81
2024/01/30 15:31:23;;;;;;;;;;;6.70;99.90;;;;;;20877173;28;19931;-80
2024/01/30 15:41:23;;;;;;;;;;;6.90;99.90;;;;;;20846818;28;19917;-81
2024/01/30 15:51:24;;;;;;;;;;;6.60;99.90;;;;;;20848426;28;20004;-81
2024/01/30 16:01:24;;;;;;;;;;;6.50;99.90;;;;;;20835690;28;19917;-80
2024/01/30 16:11:25;;;;;;;;;;;6.30;99.90;;;;;;20844059;28;20181;-79
2024/01/30 16:21:26;;;;;;;;;;;6.00;99.90;;;;;;20853264;28;20395;-80
2024/01/30 16:31:26;;;;;;;;;;;5.90;99.90;;;;;;20857595;28;19913;-79
2024/01/30 16:41:27;;;;;;;;;;;5.50;99.90;;;;;;20851621;28;19917;-78
2024/01/30 16:51:28;;;;;;;;;;;5.50;99.90;;;;;;20865505;28;19913;-80
2024/01/30 17:01:30;;;;;;;;;;;5.50;99.90;;;;;;20827023;28;21384;-80
2024/01/30 17:11:31;;;;;;;;;;;5.40;99.90;;;;;;20835436;28;20368;-80
2024/01/30 17:21:34;;;;;;;;;;;5.40;99.90;;;;;;20841010;28;19917;-80
2024/01/30 17:31:35;;;;;;;;;;;5.30;99.90;;;;;;20830796;28;19920;-82
2024/01/30 17:41:36;;;;;;;;;;;5.20;99.90;;;;;;20845823;28;19921;-80
2024/01/30 17:51:40;;;;;;;;;;;5.30;99.90;;;;;;20840891;28;20398;-81
2024/01/30 18:01:45;;;;;;;;;;;5.30;99.90;;;;;;20842049;28;19924;-79
2024/01/30 18:11:46;;;;;;;;;;;5.10;99.90;;;;;;20832797;28;19917;-79
2024/01/30 18:21:46;;;;;;;;;;;5.10;99.90;;;;;;20849281;28;19924;-79
2024/01/30 18:31:47;;;;;;;;;;;5.20;99.90;;;;;;20877257;28;19920;-80
2024/01/30 18:41:48;;;;;;;;;;;5.10;99.90;;;;;;20886559;28;20379;-81
2024/01/30 18:51:52;;;;;;;;;;;5.00;99.90;;;;;;20860762;28;19985;-81
2024/01/30 19:01:54;;;;;;;;;;;4.90;99.90;;;;;;20841956;28;20020;-80
2024/01/30 19:11:55;;;;;;;;;;;4.90;99.90;;;;;;20870519;28;19913;-80
2024/01/30 19:21:55;;;;;;;;;;;4.70;99.90;;;;;;20855177;28;19971;-81
2024/01/30 19:31:56;;;;;;;;;;;4.80;99.90;;;;;;20855750;28;19952;-80
2024/01/30 19:41:57;;;;;;;;;;;4.70;99.90;;;;;;20834100;28;19924;-79
2024/01/30 19:52:03;;;;;;;;;;;4.60;99.90;;;;;;20860956;28;19996;-80
2024/01/30 20:02:03;;;;;;;;;;;4.60;99.90;;;;;;20854356;28;19918;-79
2024/01/30 20:12:04;;;;;;;;;;;4.60;99.90;;;;;;20877475;28;19984;-79
2024/01/30 20:22:05;;;;;;;;;;;4.60;99.90;;;;;;20888662;28;20004;-80
2024/01/30 20:32:05;;;;;;;;;;;4.60;99.90;;;;;;20872220;28;20142;-80
2024/01/30 20:42:06;;;;;;;;;;;4.50;99.90;;;;;;20883859;28;19925;-80
2024/01/30 20:52:07;;;;;;;;;;;4.60;99.90;;;;;;20871385;28;19936;-79
2024/01/30 21:02:07;;;;;;;;;;;4.60;99.90;;;;;;20855106;28;19917;-79
2024/01/30 21:12:08;;;;;;;;;;;4.60;99.90;;;;;;20885629;28;20429;-79
2024/01/30 21:22:09;;;;;;;;;;;4.60;99.90;;;;;;20887310;28;20402;-79
2024/01/30 21:32:11;;;;;;;;;;;4.70;99.90;;;;;;20866696;28;19913;-79
2024/01/30 21:42:11;;;;;;;;;;;4.70;99.90;;;;;;20879902;28;19921;-80
2024/01/30 21:52:12;;;;;;;;;;;4.60;99.90;;;;;;20854490;28;20430;-81
2024/01/30 22:02:13;;;;;;;;;;;4.20;99.90;;;;;;20866990;28;19924;-80
2024/01/30 22:12:13;;;;;;;;;;;3.90;99.90;;;;;;20883015;28;19913;-81
2024/01/30 22:22:14;;;;;;;;;;;3.60;99.90;;;;;;20878427;28;19917;-80
2024/01/30 22:32:15;;;;;;;;;;;3.50;99.90;;;;;;20880641;28;20231;-81
2024/01/30 22:42:15;;;;;;;;;;;3.30;99.90;;;;;;20867299;28;19921;-81
2024/01/30 22:52:16;;;;;;;;;;;3.40;99.90;;;;;;20877526;28;19921;-81
2024/01/30 23:02:17;;;;;;;;;;;3.50;99.90;;;;;;20873244;28;19988;-80
2024/01/30 23:12:17;;;;;;;;;;;3.40;99.90;;;;;;20864808;28;19913;-81
2024/01/30 23:22:18;;;;;;;;;;;3.60;99.90;;;;;;20834275;28;19924;-81
2024/01/30 23:32:18;;;;;;;;;;;3.70;99.90;;;;;;20829731;28;19913;-80
2024/01/30 23:42:19;;;;;;;;;;;3.60;99.90;;;;;;20859702;28;19957;-81
2024/01/30 23:52:20;;;;;;;;;;;3.60;99.90;;;;;;20852219;28;19913;-81
